createdAt,value
2022-09-07T00:00:48.773Z,102391.84
2022-09-07T00:03:16.342Z,102394.56
2022-09-07T00:05:45.021Z,102366.63
2022-09-07T00:08:12.700Z,102400.00
2022-09-07T00:10:40.649Z,102401.81
2022-09-07T00:13:08.834Z,102379.16
2022-09-07T00:15:40.353Z,102400.22
2022-09-07T00:18:07.717Z,102402.94
2022-09-07T00:20:34.996Z,102405.59
2022-09-07T00:23:01.931Z,102405.66
2022-09-07T00:25:31.894Z,102406.53
2022-09-07T00:27:59.464Z,102400.41
2022-09-07T00:30:26.561Z,102396.00
2022-09-07T00:32:53.632Z,102391.66
2022-09-07T00:35:20.724Z,102404.09
2022-09-07T00:37:47.645Z,102402.38
2022-09-07T00:40:14.809Z,102392.78
2022-09-07T00:42:41.874Z,102388.41
2022-09-07T00:45:20.006Z,102400.75
2022-09-07T00:47:55.636Z,102399.94
2022-09-07T00:50:32.167Z,102398.19
2022-09-07T00:53:21.356Z,102393.81
2022-09-07T00:55:51.178Z,102395.53
2022-09-07T00:58:21.063Z,102387.59
2022-09-07T01:00:49.384Z,102393.81
2022-09-07T01:03:20.142Z,102391.25
2022-09-07T01:05:53.904Z,102391.13
2022-09-07T01:08:21.732Z,102400.03
2022-09-07T01:10:48.919Z,102394.72
2022-09-07T01:13:16.157Z,102395.56
2022-09-07T01:15:48.908Z,102398.22
2022-09-07T01:18:28.046Z,102398.19
2022-09-07T01:21:12.821Z,102397.34
2022-09-07T01:23:49.026Z,102397.34
2022-09-07T01:26:34.029Z,102400.00
2022-09-07T01:29:22.379Z,102405.28
2022-09-07T01:32:14.762Z,102393.75
2022-09-07T01:34:46.434Z,102401.75
2022-09-07T01:38:04.537Z,102402.63
2022-09-07T01:40:50.929Z,102403.47
2022-09-07T01:43:46.790Z,102413.34
2022-09-07T01:46:37.067Z,102411.47
2022-09-07T01:49:12.098Z,102410.66
2022-09-07T01:51:43.489Z,102415.88
2022-09-07T01:54:33.475Z,102414.06
2022-09-07T01:57:10.363Z,102416.78
2022-09-07T01:59:57.378Z,102406.09
2022-09-07T02:02:44.257Z,102412.31
2022-09-07T02:05:28.189Z,102414.06
2022-09-07T02:08:06.742Z,102404.59
2022-09-07T02:10:40.680Z,102424.72
2022-09-07T02:13:19.290Z,102431.81
2022-09-07T02:16:03.542Z,102424.69
2022-09-07T02:18:57.244Z,102421.13
2022-09-07T02:22:07.104Z,102421.97
2022-09-07T02:24:59.804Z,102405.25
2022-09-07T02:27:54.277Z,102421.09
2022-09-07T02:30:41.312Z,102426.38
2022-09-07T02:33:28.583Z,102431.69
2022-09-07T02:36:15.729Z,102414.84
2022-09-07T02:39:02.816Z,102436.94
2022-09-07T02:41:55.680Z,102431.63
2022-09-07T02:44:47.721Z,102427.09
2022-09-07T02:47:42.140Z,102438.63
2022-09-07T02:51:04.831Z,102437.69
2022-09-07T02:54:11.212Z,102430.56
2022-09-07T02:57:28.052Z,102435.00
2022-09-07T03:00:32.018Z,102437.63
2022-09-07T03:03:49.276Z,102434.06
2022-09-07T03:06:46.441Z,102439.38
2022-09-07T03:09:39.186Z,102437.59
2022-09-07T03:12:26.910Z,102441.94
2022-09-07T03:15:13.887Z,102443.69
2022-09-07T03:18:02.391Z,102438.31
2022-09-07T03:20:49.408Z,102439.16
2022-09-07T03:23:36.436Z,102424.28
2022-09-07T03:26:24.225Z,102441.78
2022-09-07T03:29:12.041Z,102438.16
2022-09-07T03:31:59.184Z,102437.25
2022-09-07T03:34:46.240Z,102410.94
2022-09-07T03:37:33.210Z,102409.13
2022-09-07T03:40:20.140Z,102434.47
2022-09-07T03:43:10.340Z,102437.94
2022-09-07T03:45:57.436Z,102440.56
2022-09-07T03:48:44.621Z,102433.44
2022-09-07T03:51:33.321Z,102438.75
2022-09-07T03:54:20.344Z,102437.78
2022-09-07T03:57:07.463Z,102438.66
2022-09-07T03:59:54.963Z,102443.06
2022-09-07T04:02:41.965Z,102440.34
2022-09-07T04:05:29.445Z,102442.97
2022-09-07T04:08:16.424Z,102450.00
2022-09-07T04:11:03.805Z,102447.28
2022-09-07T04:13:51.849Z,102437.53
2022-09-07T04:16:44.403Z,102439.22
2022-09-07T04:19:31.624Z,102440.91
2022-09-07T04:22:18.512Z,102392.81
2022-09-07T04:25:05.516Z,102435.47
2022-09-07T04:27:52.381Z,102439.84
2022-09-07T04:30:39.449Z,102423.03
2022-09-07T04:33:26.592Z,102437.81
2022-09-07T04:36:13.618Z,102449.28
2022-09-07T04:39:01.297Z,102446.53
2022-09-07T04:41:49.705Z,102451.72
2022-09-07T04:44:36.749Z,102451.63
2022-09-07T04:47:23.694Z,102452.47
2022-09-07T04:50:11.894Z,102435.78
2022-09-07T04:52:58.835Z,102456.72
2022-09-07T04:55:45.917Z,102460.19
2022-09-07T04:58:33.259Z,102448.59
2022-09-07T05:01:24.966Z,102453.88
2022-09-07T05:03:52.499Z,102468.84
2022-09-07T05:06:20.796Z,102466.13
2022-09-07T05:08:50.866Z,102466.09
2022-09-07T05:11:19.588Z,102470.44
2022-09-07T05:13:46.649Z,102475.69
2022-09-07T05:16:20.341Z,102468.53
2022-09-07T05:19:15.477Z,102483.56
2022-09-07T05:22:02.746Z,102459.03
2022-09-07T05:24:49.930Z,102462.41
2022-09-07T05:27:37.068Z,102490.47
2022-09-07T05:36:38.365Z,102483.97
2022-09-07T05:39:27.003Z,102489.22
2022-09-07T05:42:14.115Z,102490.06
2022-09-07T05:45:01.303Z,102451.75
2022-09-07T05:47:48.219Z,102491.78
2022-09-07T05:50:35.277Z,102496.94
2022-09-07T05:53:22.829Z,102467.13
2022-09-07T05:56:12.452Z,102481.88
2022-09-07T05:58:59.681Z,102501.09
2022-09-07T06:01:46.841Z,102498.31
2022-09-07T06:04:33.795Z,102496.41
2022-09-07T06:07:22.497Z,102503.44
2022-09-07T06:13:18.084Z,102499.63
2022-09-07T06:16:05.184Z,102476.00
2022-09-07T06:18:54.749Z,102505.63
2022-09-07T06:21:43.428Z,102504.59
2022-09-07T06:24:30.714Z,102505.47
2022-09-07T06:27:17.638Z,102507.16
2022-09-07T06:30:04.597Z,102512.25
2022-09-07T06:32:51.554Z,102519.16
2022-09-07T06:35:38.702Z,102512.81
2022-09-07T06:38:31.248Z,102519.84
2022-09-07T06:44:40.384Z,102490.88
2022-09-07T06:47:27.491Z,102520.28
2022-09-07T06:50:14.413Z,102516.66
2022-09-07T06:56:08.425Z,102523.47
2022-09-07T06:58:56.099Z,102524.31
2022-09-07T07:01:44.913Z,102505.94
2022-09-07T07:04:33.241Z,102534.84
2022-09-07T07:07:23.479Z,102531.22
2022-09-07T07:10:10.641Z,102533.84
2022-09-07T07:12:58.355Z,102531.94
2022-09-07T07:15:47.366Z,102526.50
2022-09-07T07:18:34.681Z,102527.28
2022-09-07T07:22:10.823Z,102527.97
2022-09-07T07:24:55.270Z,102537.59
2022-09-07T07:27:42.264Z,102530.34
2022-09-07T07:30:29.663Z,102526.69
2022-09-07T07:33:16.829Z,102533.72
2022-09-07T07:36:03.929Z,102536.22
2022-09-07T07:44:39.369Z,102538.56
2022-09-07T07:47:26.360Z,102539.41
2022-09-07T07:56:29.915Z,102523.25
2022-09-07T07:59:16.801Z,102544.69
2022-09-07T08:02:03.951Z,102551.44
2022-09-07T08:04:52.828Z,102544.88
2022-09-07T08:07:40.239Z,102551.75
2022-09-07T08:10:27.441Z,102518.47
2022-09-07T08:13:14.416Z,102549.72
2022-09-07T08:16:01.922Z,102556.63
2022-09-07T08:18:49.375Z,102560.06
2022-09-07T08:21:36.846Z,102558.22
2022-09-07T08:24:24.024Z,102559.97
2022-09-07T08:27:11.721Z,102558.00
2022-09-07T08:29:58.777Z,102568.53
2022-09-07T08:32:46.746Z,102548.09
2022-09-07T08:35:33.942Z,102566.44
2022-09-07T08:38:21.174Z,102558.28
2022-09-07T08:40:49.308Z,102565.28
2022-09-07T08:43:57.060Z,102561.66
2022-09-07T08:46:54.839Z,102567.00
2022-09-07T08:49:42.009Z,102563.44
2022-09-07T08:52:44.149Z,102566.09
2022-09-07T08:55:29.357Z,102565.22
2022-09-07T08:58:45.264Z,102564.28
2022-09-07T09:01:31.915Z,102558.84
2022-09-07T09:04:16.008Z,102567.78
2022-09-07T09:06:58.773Z,102559.75
2022-09-07T09:09:55.266Z,102570.34
2022-09-07T09:12:25.153Z,102572.94
2022-09-07T09:15:13.775Z,102574.63
2022-09-07T09:17:59.673Z,102582.78
2022-09-07T09:20:44.446Z,102575.94
2022-09-07T09:23:17.400Z,102582.44
2022-09-07T09:26:00.158Z,102584.41
2022-09-07T09:28:30.259Z,102579.22
2022-09-07T09:30:59.533Z,102584.75
2022-09-07T09:33:29.115Z,102575.00
2022-09-07T09:36:02.451Z,102540.19
2022-09-07T09:38:34.486Z,102574.16
2022-09-07T09:41:33.197Z,102571.72
2022-09-07T09:44:20.146Z,102588.25
2022-09-07T09:53:35.353Z,102584.53
2022-09-07T09:56:04.874Z,102578.28
2022-09-07T10:01:36.079Z,102586.25
2022-09-07T10:04:22.645Z,102589.88
2022-09-07T10:06:58.033Z,102585.34
2022-09-07T10:09:30.172Z,102536.41
2022-09-07T10:12:08.545Z,102586.84
2022-09-07T10:14:47.392Z,102585.75
2022-09-07T10:17:29.071Z,102593.59
2022-09-07T10:20:22.950Z,102588.06
2022-09-07T10:22:52.972Z,102591.50
2022-09-07T10:25:53.542Z,102589.78
2022-09-07T10:31:52.253Z,102591.34
2022-09-07T10:34:49.173Z,102603.69
2022-09-07T10:37:45.300Z,102601.63
2022-09-07T10:40:55.089Z,102596.97
2022-09-07T10:43:56.040Z,102607.56
2022-09-07T10:46:57.008Z,102605.00
2022-09-07T10:53:38.947Z,102610.91
2022-09-07T10:56:19.439Z,102607.53
2022-09-07T10:59:12.031Z,102604.19
2022-09-07T11:02:30.918Z,102608.00
2022-09-07T11:05:48.171Z,102604.56
2022-09-07T11:12:07.069Z,102594.66
2022-09-07T11:15:11.626Z,102597.94
2022-09-07T11:18:17.067Z,102599.53
2022-09-07T11:21:10.920Z,102611.09
2022-09-07T11:24:22.181Z,102604.78
2022-09-07T11:27:13.661Z,102603.00
2022-09-07T11:30:16.614Z,102601.13
2022-09-07T11:33:13.157Z,102613.53
2022-09-07T11:36:16.911Z,102602.81
2022-09-07T11:39:20.298Z,102609.00
2022-09-07T11:42:44.460Z,102614.28
2022-09-07T11:45:48.019Z,102618.63
2022-09-07T11:49:15.106Z,102615.97
2022-09-07T11:52:07.609Z,102606.31
2022-09-07T11:54:54.888Z,102615.84
2022-09-07T11:57:33.928Z,102616.66
2022-09-07T12:00:19.349Z,102624.63
2022-09-07T12:03:27.727Z,102620.13
2022-09-07T12:06:00.617Z,102613.72
2022-09-07T12:08:51.530Z,102622.34
2022-09-07T12:11:31.122Z,102620.03
2022-09-07T12:14:26.976Z,102625.50
2022-09-07T12:16:59.925Z,102624.03
2022-09-07T12:19:28.353Z,102626.88
2022-09-07T12:21:56.666Z,102625.16
2022-09-07T12:24:32.625Z,102631.69
2022-09-07T12:27:00.701Z,102621.25
2022-09-07T12:29:28.960Z,102621.59
2022-09-07T12:32:07.309Z,102616.41
2022-09-07T12:35:14.393Z,102602.94
2022-09-07T12:38:02.372Z,102604.97
2022-09-07T12:40:49.244Z,102621.13
2022-09-07T12:43:16.372Z,102615.06
2022-09-07T12:45:50.581Z,102614.41
2022-09-07T12:48:17.721Z,102620.03
2022-09-07T12:50:53.361Z,102612.47
2022-09-07T12:53:37.555Z,102615.56
2022-09-07T12:56:29.524Z,102606.16
2022-09-07T12:59:17.340Z,102605.84
2022-09-07T13:02:44.007Z,102610.19
2022-09-07T13:05:31.098Z,102607.34
2022-09-07T13:09:07.046Z,102602.69
2022-09-07T13:11:57.142Z,102606.94
2022-09-07T13:14:49.262Z,102605.13
2022-09-07T13:18:02.055Z,102615.25
2022-09-07T13:20:50.185Z,102618.25
2022-09-07T13:23:45.759Z,102626.81
2022-09-07T13:27:11.117Z,102619.50
2022-09-07T13:30:01.210Z,102622.81
2022-09-07T13:35:44.773Z,102622.91
2022-09-07T13:38:15.458Z,102608.59
2022-09-07T13:40:46.869Z,102628.00
2022-09-07T13:43:21.914Z,102632.72
2022-09-07T13:45:54.927Z,102634.97
2022-09-07T13:48:51.985Z,102640.03
2022-09-07T13:51:34.180Z,102619.63
2022-09-07T13:54:38.209Z,102638.50
2022-09-07T13:57:24.429Z,102630.03
2022-09-07T13:59:52.417Z,102645.25
2022-09-07T14:02:44.080Z,102641.97
2022-09-07T14:05:36.991Z,102626.41
2022-09-07T14:08:23.923Z,102636.72
2022-09-07T14:11:10.800Z,102643.19
2022-09-07T14:13:57.741Z,102645.22
2022-09-07T14:16:44.896Z,102640.09
2022-09-07T14:19:56.016Z,102635.06
2022-09-07T14:22:53.214Z,102643.41
2022-09-07T14:25:22.901Z,102641.06
2022-09-07T14:27:50.070Z,102644.06
2022-09-07T14:30:46.076Z,102642.59
2022-09-07T14:33:35.446Z,102638.41
2022-09-07T14:36:43.508Z,102639.53
2022-09-07T14:39:32.634Z,102642.47
2022-09-07T14:42:23.096Z,102642.66
2022-09-07T14:45:10.520Z,102628.88
2022-09-07T14:47:58.437Z,102639.47
2022-09-07T14:51:19.482Z,102646.81
2022-09-07T14:54:15.719Z,102642.66
2022-09-07T14:57:02.759Z,102650.00
2022-09-07T14:59:58.090Z,102638.56
2022-09-07T15:02:52.630Z,102634.28
2022-09-07T15:05:47.769Z,102637.97
2022-09-07T15:08:59.688Z,102638.09
2022-09-07T15:11:49.194Z,102639.13
2022-09-07T15:14:40.490Z,102637.50
2022-09-07T15:17:50.818Z,102641.97
2022-09-07T15:20:59.061Z,102640.25
2022-09-07T15:23:26.026Z,102600.09
2022-09-07T15:25:54.097Z,102638.63
2022-09-07T15:34:16.010Z,102634.38
2022-09-07T15:36:48.731Z,102635.38
2022-09-07T15:39:28.118Z,102640.78
2022-09-07T15:41:55.507Z,102641.69
2022-09-07T15:44:26.093Z,102637.44
2022-09-07T15:49:49.173Z,102632.81
2022-09-07T15:52:18.031Z,102646.19
2022-09-07T15:54:45.047Z,102651.59
2022-09-07T15:59:59.120Z,102643.19
2022-09-07T16:05:13.857Z,102613.63
2022-09-07T16:10:31.058Z,102652.28
2022-09-07T16:13:03.115Z,102649.72
2022-09-07T16:15:31.877Z,102641.81
2022-09-07T16:17:58.757Z,102642.88
2022-09-07T16:20:25.728Z,102652.78
2022-09-07T16:25:43.426Z,102646.00
2022-09-07T16:28:10.924Z,102642.66
2022-09-07T16:30:41.131Z,102651.59
2022-09-07T16:33:08.400Z,102653.44
2022-09-07T16:35:35.448Z,102655.38
2022-09-07T16:40:51.061Z,102650.28
2022-09-07T16:43:18.151Z,102635.41
2022-09-07T16:48:34.610Z,102648.84
2022-09-07T16:51:05.410Z,102649.88
2022-09-07T16:53:35.640Z,102595.81
2022-09-07T16:56:04.275Z,102639.50
2022-09-07T16:58:37.457Z,102649.41
2022-09-07T17:01:25.711Z,102654.75
2022-09-07T17:04:13.434Z,102618.25
2022-09-07T17:07:00.786Z,102655.94
2022-09-07T17:09:28.761Z,102663.22
2022-09-07T17:11:55.651Z,102651.16
2022-09-07T17:14:22.648Z,102674.16
2022-09-07T17:16:49.803Z,102676.00
2022-09-07T17:19:32.615Z,102669.03
2022-09-07T17:22:19.757Z,102673.56
2022-09-07T17:25:06.725Z,102679.97
2022-09-07T17:27:33.757Z,102672.09
2022-09-07T17:30:00.668Z,102676.66
2022-09-07T17:32:30.043Z,102671.50
2022-09-07T17:34:57.297Z,102682.31
2022-09-07T17:37:24.226Z,102685.13
2022-09-07T17:39:51.841Z,102694.19
2022-09-07T17:42:19.160Z,102689.91
2022-09-07T17:44:46.000Z,102690.94
2022-09-07T17:47:13.272Z,102682.41
2022-09-07T17:49:40.196Z,102697.47
2022-09-07T17:52:07.269Z,102694.06
2022-09-07T17:54:34.189Z,102706.72
2022-09-07T17:57:01.041Z,102692.63
2022-09-07T18:02:15.056Z,102716.16
2022-09-07T18:04:42.715Z,102710.97
2022-09-07T18:07:09.736Z,102712.03
2022-09-07T18:09:37.003Z,102686.84
2022-09-07T18:12:04.191Z,102715.03
2022-09-07T18:14:31.358Z,102709.00
2022-09-07T18:16:58.235Z,102708.28
2022-09-07T18:19:25.900Z,102710.22
2022-09-07T18:21:53.093Z,102713.00
2022-09-07T18:24:23.552Z,102715.81
2022-09-07T18:26:52.788Z,102711.53
2022-09-07T18:29:29.858Z,102712.53
2022-09-07T18:31:58.613Z,102715.31
2022-09-07T18:34:26.148Z,102714.59
2022-09-07T18:36:53.821Z,102716.44
2022-09-07T18:39:21.998Z,102721.00
2022-09-07T18:41:49.237Z,102716.72
2022-09-07T18:47:03.577Z,102724.09
2022-09-07T18:49:30.545Z,102728.63
2022-09-07T18:54:44.414Z,102728.09
2022-09-07T18:57:11.305Z,102734.41
2022-09-07T18:59:38.202Z,102740.72
2022-09-07T19:02:08.122Z,102736.50
2022-09-07T19:07:28.825Z,102749.09
2022-09-07T19:09:56.955Z,102751.81
2022-09-07T19:12:24.376Z,102750.13
2022-09-07T19:14:51.686Z,102756.44
2022-09-07T19:17:19.564Z,102760.94
2022-09-07T19:19:46.783Z,102763.69
2022-09-07T19:22:13.793Z,102763.75
2022-09-07T19:24:40.703Z,102768.28
2022-09-07T19:27:27.647Z,102769.28
2022-09-07T19:29:56.156Z,102763.19
2022-09-07T19:32:23.101Z,102765.94
2022-09-07T19:34:54.572Z,102770.44
2022-09-07T19:37:25.761Z,102767.91
2022-09-07T19:39:56.102Z,102763.56
2022-09-07T19:42:24.009Z,102763.66
2022-09-07T19:44:51.377Z,102704.09
2022-09-07T19:47:18.759Z,102772.69
2022-09-07T19:49:45.776Z,102773.75
2022-09-07T19:52:12.644Z,102785.41
2022-09-07T19:54:40.684Z,102778.41
2022-09-07T19:57:27.587Z,102771.47
2022-09-07T20:00:14.856Z,102783.84
2022-09-07T20:03:01.721Z,102779.53
2022-09-07T20:05:48.788Z,102782.25
2022-09-07T20:08:35.600Z,102782.31
2022-09-07T20:11:24.545Z,102785.94
2022-09-07T20:14:11.491Z,102782.47
2022-09-07T20:16:58.633Z,102787.84
2022-09-07T20:19:45.576Z,102779.16
2022-09-07T20:22:32.726Z,102790.63
2022-09-07T20:25:21.088Z,102794.25
2022-09-07T20:28:08.422Z,102785.44
2022-09-07T20:30:55.276Z,102784.63
2022-09-07T20:33:43.111Z,102785.59
2022-09-07T20:36:33.348Z,102758.50
2022-09-07T20:39:20.647Z,102791.03
2022-09-07T20:42:07.782Z,102746.34
2022-09-07T20:44:55.010Z,102792.91
2022-09-07T20:47:41.839Z,102796.56
2022-09-07T20:50:29.380Z,102794.81
2022-09-07T20:53:16.203Z,102802.81
2022-09-07T20:55:43.247Z,102791.44
2022-09-07T20:58:10.141Z,102796.78
2022-09-07T21:00:37.505Z,102775.72
2022-09-07T21:03:04.608Z,102799.53
2022-09-07T21:05:35.433Z,102803.06
2022-09-07T21:08:02.637Z,102805.78
2022-09-07T21:10:29.635Z,102813.78
2022-09-07T21:12:56.507Z,102811.19
2022-09-07T21:15:23.516Z,102807.69
2022-09-07T21:17:50.450Z,102808.63
2022-09-07T21:20:17.297Z,102812.19
2022-09-07T21:22:44.150Z,102806.91
2022-09-07T21:25:11.188Z,102808.75
2022-09-07T21:27:38.834Z,102813.19
2022-09-07T21:30:06.592Z,102794.72
2022-09-07T21:32:33.571Z,102809.72
2022-09-07T21:35:00.526Z,102806.25
2022-09-07T21:37:27.446Z,102807.13
2022-09-07T21:39:55.082Z,102771.16
2022-09-07T21:42:42.005Z,102812.50
2022-09-07T21:45:29.181Z,102803.78
2022-09-07T21:48:15.978Z,102810.03
2022-09-07T21:51:03.038Z,102810.06
2022-09-07T21:53:50.020Z,102815.34
2022-09-07T21:56:37.005Z,102825.97
2022-09-07T21:59:23.824Z,102803.97
2022-09-07T22:02:10.984Z,102822.50
2022-09-07T22:04:57.898Z,102826.91
2022-09-07T22:07:44.995Z,102820.78
2022-09-07T22:10:31.910Z,102817.25
2022-09-07T22:13:18.860Z,102820.78
2022-09-07T22:16:07.984Z,102779.47
2022-09-07T22:18:56.142Z,102834.03
2022-09-07T22:21:45.284Z,102817.34
2022-09-07T22:24:32.724Z,102835.84
2022-09-07T22:27:19.584Z,102833.19
2022-09-07T22:30:06.637Z,102836.72
2022-09-07T22:32:53.739Z,102851.75
2022-09-07T22:35:41.285Z,102849.97
2022-09-07T22:38:28.085Z,102847.34
2022-09-07T22:41:15.148Z,102853.53
2022-09-07T22:44:03.136Z,102843.84
2022-09-07T22:46:54.382Z,102852.69
2022-09-07T22:49:41.294Z,102819.25
2022-09-07T22:52:28.517Z,102850.94
2022-09-07T22:55:15.353Z,102848.31
2022-09-07T22:58:02.457Z,102843.91
2022-09-07T23:00:49.314Z,102851.84
2022-09-07T23:03:37.964Z,102845.69
2022-09-07T23:06:25.065Z,102853.63
2022-09-07T23:09:13.695Z,102855.41
2022-09-07T23:12:00.873Z,102860.69
2022-09-07T23:14:47.766Z,102867.72
2022-09-07T23:17:34.563Z,102859.81
2022-09-07T23:20:21.705Z,102861.56
2022-09-07T23:23:08.498Z,102860.69
2022-09-07T23:26:00.239Z,102860.72
2022-09-07T23:28:47.233Z,102856.28
2022-09-07T23:31:34.309Z,102858.03
2022-09-07T23:34:22.077Z,102827.25
2022-09-07T23:37:09.048Z,102854.53
2022-09-07T23:39:56.152Z,102852.75
2022-09-07T23:42:43.184Z,102854.53
2022-09-07T23:45:30.465Z,102851.91
2022-09-07T23:48:17.466Z,102856.28
2022-09-07T23:51:05.064Z,102845.72
2022-09-07T23:53:52.129Z,102850.13
2022-09-07T23:56:40.001Z,102854.53
2022-09-07T23:59:27.038Z,102827.25
